sensor_id;sensor_type;location;lat;lon;timestamp;pressure;altitude;pressure_sealevel;temperature;humidity
8707;BME280;75512;49.302;9.306;2024-03-08T00:00:56;99813.75;;;3.76;46.53
8707;BME280;75512;49.302;9.306;2024-03-08T00:03:24;99820.00;;;3.99;46.21
8707;BME280;75512;49.302;9.306;2024-03-08T00:05:51;99819.91;;;3.61;46.86
8707;BME280;75512;49.302;9.306;2024-03-08T00:08:19;99810.34;;;3.75;46.89
8707;BME280;75512;49.302;9.306;2024-03-08T00:10:48;99812.78;;;3.64;46.97
8707;BME280;75512;49.302;9.306;2024-03-08T00:13:16;99817.28;;;3.48;47.36
8707;BME280;75512;49.302;9.306;2024-03-08T00:15:44;99809.53;;;3.48;47.28
8707;BME280;75512;49.302;9.306;2024-03-08T00:18:11;99807.78;;;3.48;47.35
8707;BME280;75512;49.302;9.306;2024-03-08T00:20:39;99813.84;;;3.21;47.74
8707;BME280;75512;49.302;9.306;2024-03-08T00:23:07;99798.84;;;3.40;47.42
8707;BME280;75512;49.302;9.306;2024-03-08T00:25:35;99799.16;;;3.21;47.91
8707;BME280;75512;49.302;9.306;2024-03-08T00:28:04;99811.78;;;2.84;48.86
8707;BME280;75512;49.302;9.306;2024-03-08T00:30:32;99801.22;;;2.75;49.31
8707;BME280;75512;49.302;9.306;2024-03-08T00:33:00;99796.94;;;2.88;49.04
8707;BME280;75512;49.302;9.306;2024-03-08T00:35:28;99792.91;;;2.70;49.76
8707;BME280;75512;49.302;9.306;2024-03-08T00:37:56;99798.56;;;2.48;49.48
8707;BME280;75512;49.302;9.306;2024-03-08T00:40:24;99796.88;;;2.75;49.74
8707;BME280;75512;49.302;9.306;2024-03-08T00:42:52;99786.13;;;2.40;49.92
8707;BME280;75512;49.302;9.306;2024-03-08T00:45:22;99781.06;;;2.25;50.92
8707;BME280;75512;49.302;9.306;2024-03-08T00:47:49;99786.84;;;2.42;50.56
8707;BME280;75512;49.302;9.306;2024-03-08T00:50:17;99781.78;;;2.27;50.70
8707;BME280;75512;49.302;9.306;2024-03-08T00:52:45;99786.91;;;2.55;49.62
8707;BME280;75512;49.302;9.306;2024-03-08T00:55:14;99782.03;;;2.65;49.69
8707;BME280;75512;49.302;9.306;2024-03-08T00:57:41;99781.84;;;2.68;49.44
8707;BME280;75512;49.302;9.306;2024-03-08T01:00:10;99781.66;;;2.57;49.70
8707;BME280;75512;49.302;9.306;2024-03-08T01:02:40;99769.81;;;2.81;49.11
8707;BME280;75512;49.302;9.306;2024-03-08T01:05:08;99770.19;;;3.16;48.22
8707;BME280;75512;49.302;9.306;2024-03-08T01:07:36;99762.53;;;2.88;48.91
8707;BME280;75512;49.302;9.306;2024-03-08T01:10:04;99758.47;;;2.98;48.43
8707;BME280;75512;49.302;9.306;2024-03-08T01:12:36;99764.06;;;3.04;48.67
8707;BME280;75512;49.302;9.306;2024-03-08T01:15:04;99754.69;;;2.89;48.88
8707;BME280;75512;49.302;9.306;2024-03-08T01:17:32;99749.78;;;2.99;48.93
8707;BME280;75512;49.302;9.306;2024-03-08T01:20:02;99758.16;;;3.02;48.15
8707;BME280;75512;49.302;9.306;2024-03-08T01:22:30;99749.91;;;3.10;48.03
8707;BME280;75512;49.302;9.306;2024-03-08T01:24:57;99742.97;;;2.98;48.33
8707;BME280;75512;49.302;9.306;2024-03-08T01:27:25;99747.44;;;3.08;48.33
8707;BME280;75512;49.302;9.306;2024-03-08T01:29:53;99741.00;;;2.74;48.79
8707;BME280;75512;49.302;9.306;2024-03-08T01:32:21;99735.19;;;2.71;49.16
8707;BME280;75512;49.302;9.306;2024-03-08T01:34:49;99741.88;;;2.18;50.67
8707;BME280;75512;49.302;9.306;2024-03-08T01:37:18;99740.22;;;2.45;50.08
8707;BME280;75512;49.302;9.306;2024-03-08T01:39:46;99732.47;;;2.45;49.85
8707;BME280;75512;49.302;9.306;2024-03-08T01:42:14;99731.78;;;2.70;49.21
8707;BME280;75512;49.302;9.306;2024-03-08T01:44:44;99736.56;;;2.76;49.21
8707;BME280;75512;49.302;9.306;2024-03-08T01:47:11;99728.78;;;2.49;49.52
8707;BME280;75512;49.302;9.306;2024-03-08T01:49:39;99726.28;;;2.34;50.10
8707;BME280;75512;49.302;9.306;2024-03-08T01:52:07;99716.53;;;2.39;50.54
8707;BME280;75512;49.302;9.306;2024-03-08T01:54:37;99716.56;;;2.66;49.33
8707;BME280;75512;49.302;9.306;2024-03-08T01:57:05;99717.53;;;2.51;49.86
8707;BME280;75512;49.302;9.306;2024-03-08T01:59:33;99722.28;;;2.57;49.37
8707;BME280;75512;49.302;9.306;2024-03-08T02:02:01;99719.19;;;2.37;49.74
8707;BME280;75512;49.302;9.306;2024-03-08T02:04:30;99714.81;;;2.66;49.27
8707;BME280;75512;49.302;9.306;2024-03-08T02:06:58;99707.72;;;2.56;49.58
8707;BME280;75512;49.302;9.306;2024-03-08T02:09:25;99701.09;;;2.93;48.73
8707;BME280;75512;49.302;9.306;2024-03-08T02:11:54;99705.50;;;3.17;48.05
8707;BME280;75512;49.302;9.306;2024-03-08T02:14:28;99704.22;;;3.10;47.86
8707;BME280;75512;49.302;9.306;2024-03-08T02:17:00;99702.25;;;3.01;48.27
8707;BME280;75512;49.302;9.306;2024-03-08T02:19:28;99685.75;;;2.77;48.90
8707;BME280;75512;49.302;9.306;2024-03-08T02:21:57;99690.69;;;2.53;49.49
8707;BME280;75512;49.302;9.306;2024-03-08T02:24:25;99694.91;;;2.54;49.47
8707;BME280;75512;49.302;9.306;2024-03-08T02:26:53;99682.50;;;2.46;49.21
8707;BME280;75512;49.302;9.306;2024-03-08T02:29:21;99681.22;;;2.39;49.80
8707;BME280;75512;49.302;9.306;2024-03-08T02:31:50;99683.59;;;2.42;49.59
8707;BME280;75512;49.302;9.306;2024-03-08T02:34:18;99677.47;;;2.02;50.99
8707;BME280;75512;49.302;9.306;2024-03-08T02:36:46;99679.97;;;1.90;51.52
8707;BME280;75512;49.302;9.306;2024-03-08T02:39:15;99677.47;;;1.88;51.47
8707;BME280;75512;49.302;9.306;2024-03-08T02:41:43;99675.34;;;2.23;50.62
8707;BME280;75512;49.302;9.306;2024-03-08T02:44:11;99672.38;;;2.29;50.12
8707;BME280;75512;49.302;9.306;2024-03-08T02:46:38;99676.69;;;2.29;50.49
8707;BME280;75512;49.302;9.306;2024-03-08T02:49:06;99677.78;;;1.98;50.97
8707;BME280;75512;49.302;9.306;2024-03-08T02:51:34;99671.19;;;2.06;50.66
8707;BME280;75512;49.302;9.306;2024-03-08T02:54:02;99672.69;;;2.10;50.43
8707;BME280;75512;49.302;9.306;2024-03-08T02:56:32;99672.13;;;2.20;50.40
8707;BME280;75512;49.302;9.306;2024-03-08T02:59:01;99663.28;;;1.81;51.94
8707;BME280;75512;49.302;9.306;2024-03-08T03:01:29;99673.78;;;1.64;52.20
8707;BME280;75512;49.302;9.306;2024-03-08T03:03:58;99667.31;;;1.57;52.33
8707;BME280;75512;49.302;9.306;2024-03-08T03:06:26;99657.38;;;1.51;52.90
8707;BME280;75512;49.302;9.306;2024-03-08T03:08:53;99665.94;;;1.51;52.66
8707;BME280;75512;49.302;9.306;2024-03-08T03:11:23;99654.50;;;1.41;53.15
8707;BME280;75512;49.302;9.306;2024-03-08T03:13:53;99652.94;;;1.53;52.57
8707;BME280;75512;49.302;9.306;2024-03-08T03:16:22;99650.88;;;1.29;53.12
8707;BME280;75512;49.302;9.306;2024-03-08T03:18:50;99648.81;;;1.50;52.41
8707;BME280;75512;49.302;9.306;2024-03-08T03:21:18;99644.38;;;1.38;52.75
8707;BME280;75512;49.302;9.306;2024-03-08T03:23:46;99641.19;;;1.63;52.02
8707;BME280;75512;49.302;9.306;2024-03-08T03:26:14;99652.41;;;1.76;51.92
8707;BME280;75512;49.302;9.306;2024-03-08T03:28:43;99641.47;;;1.58;52.37
8707;BME280;75512;49.302;9.306;2024-03-08T03:31:12;99635.72;;;1.39;52.75
8707;BME280;75512;49.302;9.306;2024-03-08T03:33:41;99640.13;;;1.23;53.00
8707;BME280;75512;49.302;9.306;2024-03-08T03:36:09;99640.50;;;1.31;53.00
8707;BME280;75512;49.302;9.306;2024-03-08T03:38:38;99634.16;;;1.22;53.05
8707;BME280;75512;49.302;9.306;2024-03-08T03:41:06;99641.75;;;1.24;52.76
8707;BME280;75512;49.302;9.306;2024-03-08T03:43:37;99632.28;;;1.24;52.78
8707;BME280;75512;49.302;9.306;2024-03-08T03:46:06;99628.19;;;0.92;54.08
8707;BME280;75512;49.302;9.306;2024-03-08T03:48:35;99627.19;;;0.94;53.42
8707;BME280;75512;49.302;9.306;2024-03-08T03:51:03;99624.47;;;1.26;53.29
8707;BME280;75512;49.302;9.306;2024-03-08T03:53:30;99631.75;;;1.19;52.84
8707;BME280;75512;49.302;9.306;2024-03-08T03:55:58;99630.28;;;1.29;52.96
8707;BME280;75512;49.302;9.306;2024-03-08T03:58:26;99620.25;;;1.25;53.09
8707;BME280;75512;49.302;9.306;2024-03-08T04:00:54;99624.50;;;1.54;52.67
8707;BME280;75512;49.302;9.306;2024-03-08T04:03:21;99621.50;;;1.62;52.16
8707;BME280;75512;49.302;9.306;2024-03-08T04:05:50;99623.28;;;1.31;53.06
8707;BME280;75512;49.302;9.306;2024-03-08T04:08:18;99617.31;;;1.17;53.78
8707;BME280;75512;49.302;9.306;2024-03-08T04:10:46;99619.38;;;0.96;53.75
8707;BME280;75512;49.302;9.306;2024-03-08T04:13:14;99612.47;;;0.96;53.50
8707;BME280;75512;49.302;9.306;2024-03-08T04:15:42;99610.72;;;0.97;53.81
8707;BME280;75512;49.302;9.306;2024-03-08T04:18:15;99611.09;;;1.05;53.82
8707;BME280;75512;49.302;9.306;2024-03-08T04:20:43;99613.56;;;0.92;53.34
8707;BME280;75512;49.302;9.306;2024-03-08T04:23:12;99613.22;;;0.83;54.73
8707;BME280;75512;49.302;9.306;2024-03-08T04:25:39;99611.56;;;1.11;53.12
8707;BME280;75512;49.302;9.306;2024-03-08T04:28:08;99620.06;;;1.13;53.38
8707;BME280;75512;49.302;9.306;2024-03-08T04:30:38;99613.72;;;1.33;53.11
8707;BME280;75512;49.302;9.306;2024-03-08T04:33:06;99604.69;;;1.12;53.62
8707;BME280;75512;49.302;9.306;2024-03-08T04:35:35;99605.56;;;0.97;53.42
8707;BME280;75512;49.302;9.306;2024-03-08T04:38:03;99607.75;;;1.19;53.66
8707;BME280;75512;49.302;9.306;2024-03-08T04:40:33;99597.06;;;1.25;52.79
8707;BME280;75512;49.302;9.306;2024-03-08T04:43:02;99602.78;;;1.00;53.64
8707;BME280;75512;49.302;9.306;2024-03-08T04:45:30;99604.84;;;0.95;53.70
8707;BME280;75512;49.302;9.306;2024-03-08T04:47:57;99604.63;;;0.98;54.13
8707;BME280;75512;49.302;9.306;2024-03-08T04:50:25;99595.53;;;0.31;56.31
8707;BME280;75512;49.302;9.306;2024-03-08T04:52:55;99594.78;;;0.13;56.70
8707;BME280;75512;49.302;9.306;2024-03-08T04:55:23;99596.84;;;0.06;57.12
8707;BME280;75512;49.302;9.306;2024-03-08T04:57:52;99596.53;;;0.44;55.29
8707;BME280;75512;49.302;9.306;2024-03-08T05:00:20;99588.88;;;0.27;56.63
8707;BME280;75512;49.302;9.306;2024-03-08T05:02:48;99587.72;;;0.32;55.95
8707;BME280;75512;49.302;9.306;2024-03-08T05:05:20;99584.22;;;0.49;56.36
8707;BME280;75512;49.302;9.306;2024-03-08T05:07:49;99575.81;;;0.61;55.67
8707;BME280;75512;49.302;9.306;2024-03-08T05:10:17;99574.03;;;0.77;54.93
8707;BME280;75512;49.302;9.306;2024-03-08T05:12:44;99565.66;;;0.90;54.49
8707;BME280;75512;49.302;9.306;2024-03-08T05:15:13;99566.09;;;0.66;55.78
8707;BME280;75512;49.302;9.306;2024-03-08T05:17:41;99570.59;;;0.63;55.45
8707;BME280;75512;49.302;9.306;2024-03-08T05:20:09;99571.34;;;0.49;55.46
8707;BME280;75512;49.302;9.306;2024-03-08T05:22:39;99574.47;;;0.70;54.42
8707;BME280;75512;49.302;9.306;2024-03-08T05:25:08;99563.47;;;0.52;55.67
8707;BME280;75512;49.302;9.306;2024-03-08T05:27:36;99572.91;;;0.52;55.59
8707;BME280;75512;49.302;9.306;2024-03-08T05:30:05;99568.31;;;0.72;54.84
8707;BME280;75512;49.302;9.306;2024-03-08T05:32:34;99568.41;;;0.71;55.05
8707;BME280;75512;49.302;9.306;2024-03-08T05:35:02;99564.91;;;1.02;53.83
8707;BME280;75512;49.302;9.306;2024-03-08T05:37:33;99567.06;;;1.24;53.44
8707;BME280;75512;49.302;9.306;2024-03-08T05:40:01;99559.91;;;1.29;53.07
8707;BME280;75512;49.302;9.306;2024-03-08T05:42:40;99562.41;;;1.44;52.82
8707;BME280;75512;49.302;9.306;2024-03-08T05:45:08;99564.97;;;1.30;53.11
8707;BME280;75512;49.302;9.306;2024-03-08T05:47:40;99565.13;;;1.27;54.16
8707;BME280;75512;49.302;9.306;2024-03-08T05:50:08;99556.16;;;1.49;52.46
8707;BME280;75512;49.302;9.306;2024-03-08T05:52:38;99543.63;;;1.42;52.80
8707;BME280;75512;49.302;9.306;2024-03-08T05:55:06;99555.66;;;1.28;53.66
8707;BME280;75512;49.302;9.306;2024-03-08T05:57:36;99553.47;;;1.36;53.09
8707;BME280;75512;49.302;9.306;2024-03-08T06:00:06;99552.34;;;1.11;53.92
8707;BME280;75512;49.302;9.306;2024-03-08T06:02:38;99549.28;;;1.05;54.01
8707;BME280;75512;49.302;9.306;2024-03-08T06:05:10;99559.06;;;1.14;54.18
8707;BME280;75512;49.302;9.306;2024-03-08T06:07:38;99551.13;;;0.89;54.11
8707;BME280;75512;49.302;9.306;2024-03-08T06:10:08;99555.41;;;0.88;54.22
8707;BME280;75512;49.302;9.306;2024-03-08T06:12:37;99558.94;;;1.01;54.63
8707;BME280;75512;49.302;9.306;2024-03-08T06:15:08;99550.69;;;0.96;54.93
8707;BME280;75512;49.302;9.306;2024-03-08T06:17:36;99555.28;;;0.30;56.58
8707;BME280;75512;49.302;9.306;2024-03-08T06:20:05;99557.97;;;0.58;55.58
8707;BME280;75512;49.302;9.306;2024-03-08T06:22:38;99559.16;;;0.53;56.23
8707;BME280;75512;49.302;9.306;2024-03-08T06:25:07;99551.22;;;0.71;55.48
8707;BME280;75512;49.302;9.306;2024-03-08T06:27:36;99557.84;;;0.91;54.94
8707;BME280;75512;49.302;9.306;2024-03-08T06:30:05;99551.44;;;1.41;53.58
8707;BME280;75512;49.302;9.306;2024-03-08T06:32:33;99552.72;;;1.34;53.13
8707;BME280;75512;49.302;9.306;2024-03-08T06:35:02;99561.91;;;1.09;54.38
8707;BME280;75512;49.302;9.306;2024-03-08T06:37:32;99552.63;;;1.35;53.36
8707;BME280;75512;49.302;9.306;2024-03-08T06:40:02;99550.34;;;1.17;54.07
8707;BME280;75512;49.302;9.306;2024-03-08T06:42:30;99552.41;;;0.96;54.45
8707;BME280;75512;49.302;9.306;2024-03-08T06:45:01;99555.84;;;1.10;53.92
8707;BME280;75512;49.302;9.306;2024-03-08T06:47:32;99545.81;;;1.06;54.98
8707;BME280;75512;49.302;9.306;2024-03-08T06:50:00;99549.38;;;1.03;54.77
8707;BME280;75512;49.302;9.306;2024-03-08T06:52:28;99545.66;;;1.23;54.68
8707;BME280;75512;49.302;9.306;2024-03-08T06:54:55;99535.72;;;0.57;56.33
8707;BME280;75512;49.302;9.306;2024-03-08T06:57:25;99548.91;;;0.37;56.89
8707;BME280;75512;49.302;9.306;2024-03-08T06:59:52;99547.34;;;0.19;57.23
8707;BME280;75512;49.302;9.306;2024-03-08T07:02:20;99547.72;;;0.42;57.46
8707;BME280;75512;49.302;9.306;2024-03-08T07:04:51;99546.16;;;0.70;56.12
8707;BME280;75512;49.302;9.306;2024-03-08T07:07:19;99550.94;;;1.06;55.11
8707;BME280;75512;49.302;9.306;2024-03-08T07:09:48;99544.53;;;1.27;54.76
8707;BME280;75512;49.302;9.306;2024-03-08T07:12:16;99545.63;;;1.52;53.56
8707;BME280;75512;49.302;9.306;2024-03-08T07:14:46;99545.63;;;1.52;53.86
8707;BME280;75512;49.302;9.306;2024-03-08T07:17:14;99542.19;;;1.79;53.52
8707;BME280;75512;49.302;9.306;2024-03-08T07:19:43;99538.88;;;1.92;52.70
8707;BME280;75512;49.302;9.306;2024-03-08T07:22:10;99540.75;;;2.17;52.08
8707;BME280;75512;49.302;9.306;2024-03-08T07:24:38;99543.78;;;1.68;54.08
8707;BME280;75512;49.302;9.306;2024-03-08T07:27:22;99544.09;;;1.21;54.78
8707;BME280;75512;49.302;9.306;2024-03-08T07:29:51;99545.44;;;1.26;54.59
8707;BME280;75512;49.302;9.306;2024-03-08T07:32:34;99542.88;;;1.12;55.50
8707;BME280;75512;49.302;9.306;2024-03-08T07:35:02;99544.09;;;1.21;54.57
8707;BME280;75512;49.302;9.306;2024-03-08T07:37:30;99553.47;;;1.22;54.99
8707;BME280;75512;49.302;9.306;2024-03-08T07:39:58;99552.25;;;1.13;55.09
8707;BME280;75512;49.302;9.306;2024-03-08T07:42:25;99552.34;;;1.11;55.81
8707;BME280;75512;49.302;9.306;2024-03-08T07:44:56;99548.22;;;1.37;54.61
8707;BME280;75512;49.302;9.306;2024-03-08T07:47:24;99553.81;;;1.16;55.16
8707;BME280;75512;49.302;9.306;2024-03-08T07:49:53;99552.91;;;1.17;54.84
8707;BME280;75512;49.302;9.306;2024-03-08T07:52:21;99557.97;;;1.18;55.11
8707;BME280;75512;49.302;9.306;2024-03-08T07:54:49;99551.50;;;1.11;55.60
8707;BME280;75512;49.302;9.306;2024-03-08T07:57:17;99545.19;;;1.17;54.13
8707;BME280;75512;49.302;9.306;2024-03-08T07:59:45;99533.88;;;1.19;55.14
8707;BME280;75512;49.302;9.306;2024-03-08T08:02:14;99534.03;;;1.16;54.65
8707;BME280;75512;49.302;9.306;2024-03-08T08:04:42;99542.47;;;1.04;55.75
8707;BME280;75512;49.302;9.306;2024-03-08T08:07:11;99528.25;;;1.12;54.75
8707;BME280;75512;49.302;9.306;2024-03-08T08:09:41;99532.78;;;1.23;54.56
8707;BME280;75512;49.302;9.306;2024-03-08T08:12:09;99533.59;;;1.38;54.41
8707;BME280;75512;49.302;9.306;2024-03-08T08:14:38;99527.22;;;1.29;54.34
8707;BME280;75512;49.302;9.306;2024-03-08T08:17:07;99523.44;;;1.06;55.34
8707;BME280;75512;49.302;9.306;2024-03-08T08:19:37;99513.56;;;0.85;56.06
8707;BME280;75512;49.302;9.306;2024-03-08T08:22:05;99506.25;;;1.07;56.19
8707;BME280;75512;49.302;9.306;2024-03-08T08:24:35;99515.28;;;1.28;55.17
8707;BME280;75512;49.302;9.306;2024-03-08T08:27:04;99512.78;;;1.41;55.19
8707;BME280;75512;49.302;9.306;2024-03-08T08:29:31;99508.06;;;1.62;54.31
8707;BME280;75512;49.302;9.306;2024-03-08T08:31:59;99505.97;;;1.68;54.06
8707;BME280;75512;49.302;9.306;2024-03-08T08:34:29;99497.50;;;1.66;53.75
8707;BME280;75512;49.302;9.306;2024-03-08T08:36:59;99501.53;;;1.70;53.20
8707;BME280;75512;49.302;9.306;2024-03-08T08:39:27;99506.38;;;1.89;53.00
8707;BME280;75512;49.302;9.306;2024-03-08T08:41:54;99500.38;;;1.89;53.56
8707;BME280;75512;49.302;9.306;2024-03-08T08:44:22;99494.75;;;1.27;54.33
8707;BME280;75512;49.302;9.306;2024-03-08T08:46:50;99493.63;;;1.59;53.97
8707;BME280;75512;49.302;9.306;2024-03-08T08:49:23;99497.84;;;1.74;53.30
8707;BME280;75512;49.302;9.306;2024-03-08T08:51:50;99492.38;;;1.79;53.55
8707;BME280;75512;49.302;9.306;2024-03-08T08:54:22;99493.31;;;1.78;53.60
8707;BME280;75512;49.302;9.306;2024-03-08T08:56:51;99495.13;;;1.90;53.85
8707;BME280;75512;49.302;9.306;2024-03-08T08:59:19;99490.13;;;2.01;53.38
8707;BME280;75512;49.302;9.306;2024-03-08T09:01:49;99487.38;;;1.90;53.66
8707;BME280;75512;49.302;9.306;2024-03-08T09:04:20;99485.47;;;2.06;52.18
8707;BME280;75512;49.302;9.306;2024-03-08T09:06:49;99486.25;;;2.48;52.61
8707;BME280;75512;49.302;9.306;2024-03-08T09:09:17;99490.00;;;2.69;51.60
8707;BME280;75512;49.302;9.306;2024-03-08T09:11:46;99481.53;;;2.93;51.02
8707;BME280;75512;49.302;9.306;2024-03-08T09:14:14;99477.91;;;3.08;50.69
8707;BME280;75512;49.302;9.306;2024-03-08T09:16:42;99484.53;;;2.99;50.77
8707;BME280;75512;49.302;9.306;2024-03-08T09:19:09;99476.88;;;2.72;51.03
8707;BME280;75512;49.302;9.306;2024-03-08T09:21:38;99476.47;;;2.78;50.70
8707;BME280;75512;49.302;9.306;2024-03-08T09:24:06;99466.00;;;2.55;50.83
8707;BME280;75512;49.302;9.306;2024-03-08T09:26:34;99469.00;;;2.61;50.96
8707;BME280;75512;49.302;9.306;2024-03-08T09:29:04;99463.13;;;2.72;51.16
8707;BME280;75512;49.302;9.306;2024-03-08T09:31:33;99455.91;;;2.52;51.01
8707;BME280;75512;49.302;9.306;2024-03-08T09:34:01;99454.97;;;2.65;51.26
8707;BME280;75512;49.302;9.306;2024-03-08T09:36:29;99444.66;;;3.03;50.75
8707;BME280;75512;49.302;9.306;2024-03-08T09:38:59;99446.91;;;3.08;50.40
8707;BME280;75512;49.302;9.306;2024-03-08T09:41:27;99432.59;;;3.40;49.68
8707;BME280;75512;49.302;9.306;2024-03-08T09:43:55;99429.22;;;3.64;48.92
8707;BME280;75512;49.302;9.306;2024-03-08T09:46:27;99433.78;;;3.84;48.91
8707;BME280;75512;49.302;9.306;2024-03-08T09:48:55;99422.19;;;3.90;48.54
8707;BME280;75512;49.302;9.306;2024-03-08T09:51:27;99419.63;;;4.25;48.01
8707;BME280;75512;49.302;9.306;2024-03-08T09:53:54;99414.56;;;4.23;47.45
8707;BME280;75512;49.302;9.306;2024-03-08T09:56:22;99417.94;;;4.12;48.09
8707;BME280;75512;49.302;9.306;2024-03-08T09:58:51;99411.31;;;4.32;47.68
8707;BME280;75512;49.302;9.306;2024-03-08T10:01:42;99412.19;;;4.09;47.74
8707;BME280;75512;49.302;9.306;2024-03-08T10:04:11;99406.53;;;4.15;47.81
8707;BME280;75512;49.302;9.306;2024-03-08T10:06:40;99415.88;;;3.94;47.99
8707;BME280;75512;49.302;9.306;2024-03-08T10:09:08;99408.88;;;4.07;47.53
8707;BME280;75512;49.302;9.306;2024-03-08T10:11:36;99405.47;;;4.17;47.45
8707;BME280;75512;49.302;9.306;2024-03-08T10:14:07;99403.28;;;4.24;46.92
8707;BME280;75512;49.302;9.306;2024-03-08T10:16:37;99407.28;;;3.93;47.69
8707;BME280;75512;49.302;9.306;2024-03-08T10:19:07;99401.44;;;4.48;46.69
8707;BME280;75512;49.302;9.306;2024-03-08T10:21:36;99397.59;;;4.76;46.31
8707;BME280;75512;49.302;9.306;2024-03-08T10:24:14;99387.00;;;5.02;45.76
8707;BME280;75512;49.302;9.306;2024-03-08T10:26:42;99388.97;;;5.54;45.20
8707;BME280;75512;49.302;9.306;2024-03-08T10:29:10;99381.91;;;5.45;45.66
8707;BME280;75512;49.302;9.306;2024-03-08T10:31:43;99380.03;;;5.79;43.84
8707;BME280;75512;49.302;9.306;2024-03-08T10:34:12;99387.84;;;6.00;43.97
8707;BME280;75512;49.302;9.306;2024-03-08T10:36:40;99379.09;;;6.84;42.85
8707;BME280;75512;49.302;9.306;2024-03-08T10:39:22;99371.25;;;6.53;42.09
8707;BME280;75512;49.302;9.306;2024-03-08T10:41:53;99367.94;;;6.93;41.97
8707;BME280;75512;49.302;9.306;2024-03-08T10:44:35;99375.84;;;7.41;40.20
8707;BME280;75512;49.302;9.306;2024-03-08T10:47:15;99371.88;;;7.37;41.06
8707;BME280;75512;49.302;9.306;2024-03-08T10:49:54;99370.09;;;7.47;41.48
8707;BME280;75512;49.302;9.306;2024-03-08T10:52:23;99359.19;;;7.73;40.24
8707;BME280;75512;49.302;9.306;2024-03-08T10:54:52;99360.13;;;7.62;39.85
8707;BME280;75512;49.302;9.306;2024-03-08T10:57:22;99351.22;;;7.84;40.52
8707;BME280;75512;49.302;9.306;2024-03-08T10:59:51;99356.72;;;8.19;39.12
8707;BME280;75512;49.302;9.306;2024-03-08T11:02:23;99350.81;;;7.60;40.10
8707;BME280;75512;49.302;9.306;2024-03-08T11:04:55;99343.41;;;7.55;39.19
8707;BME280;75512;49.302;9.306;2024-03-08T11:07:24;99334.56;;;8.52;38.19
8707;BME280;75512;49.302;9.306;2024-03-08T11:09:55;99332.94;;;9.06;37.13
8707;BME280;75512;49.302;9.306;2024-03-08T11:12:25;99334.31;;;9.55;36.64
8707;BME280;75512;49.302;9.306;2024-03-08T11:14:57;99330.16;;;9.35;35.89
8707;BME280;75512;49.302;9.306;2024-03-08T11:17:42;99329.97;;;9.29;36.11
8707;BME280;75512;49.302;9.306;2024-03-08T11:20:14;99320.53;;;9.63;35.87
8707;BME280;75512;49.302;9.306;2024-03-08T11:22:48;99314.56;;;9.71;35.54
8707;BME280;75512;49.302;9.306;2024-03-08T11:25:32;99308.75;;;10.80;34.51
8707;BME280;75512;49.302;9.306;2024-03-08T11:28:09;99310.22;;;11.41;33.11
8707;BME280;75512;49.302;9.306;2024-03-08T11:30:47;99311.41;;;10.97;32.97
8707;BME280;75512;49.302;9.306;2024-03-08T11:33:35;99305.97;;;11.48;32.46
8707;BME280;75512;49.302;9.306;2024-03-08T11:36:07;99291.56;;;11.28;32.28
8707;BME280;75512;49.302;9.306;2024-03-08T11:38:40;99293.25;;;11.70;32.62
8707;BME280;75512;49.302;9.306;2024-03-08T11:41:07;99283.09;;;11.91;31.43
8707;BME280;75512;49.302;9.306;2024-03-08T11:43:35;99294.88;;;11.95;32.36
8707;BME280;75512;49.302;9.306;2024-03-08T11:46:07;99277.56;;;12.66;30.36
8707;BME280;75512;49.302;9.306;2024-03-08T11:48:35;99283.91;;;13.10;30.00
8707;BME280;75512;49.302;9.306;2024-03-08T11:51:04;99282.66;;;12.98;29.52
8707;BME280;75512;49.302;9.306;2024-03-08T11:53:33;99273.84;;;13.45;29.82
8707;BME280;75512;49.302;9.306;2024-03-08T11:56:07;99284.22;;;13.15;29.15
8707;BME280;75512;49.302;9.306;2024-03-08T11:58:35;99265.84;;;12.76;29.71
8707;BME280;75512;49.302;9.306;2024-03-08T12:01:04;99258.69;;;13.01;29.13
8707;BME280;75512;49.302;9.306;2024-03-08T12:03:32;99256.28;;;13.68;28.83
8707;BME280;75512;49.302;9.306;2024-03-08T12:06:00;99252.84;;;12.91;29.46
8707;BME280;75512;49.302;9.306;2024-03-08T12:08:30;99247.84;;;13.50;29.04
8707;BME280;75512;49.302;9.306;2024-03-08T12:10:59;99242.41;;;14.56;27.72
8707;BME280;75512;49.302;9.306;2024-03-08T12:13:28;99232.81;;;15.63;26.06
8707;BME280;75512;49.302;9.306;2024-03-08T12:15:57;99225.75;;;15.42;25.61
8707;BME280;75512;49.302;9.306;2024-03-08T12:18:26;99225.53;;;14.50;27.12
8707;BME280;75512;49.302;9.306;2024-03-08T12:21:04;99219.72;;;14.40;26.73
8707;BME280;75512;49.302;9.306;2024-03-08T12:23:34;99216.34;;;14.02;27.28
8707;BME280;75512;49.302;9.306;2024-03-08T12:26:11;99217.13;;;14.76;27.26
8707;BME280;75512;49.302;9.306;2024-03-08T12:28:40;99217.88;;;15.06;26.07
8707;BME280;75512;49.302;9.306;2024-03-08T12:31:11;99216.44;;;15.04;26.54
8707;BME280;75512;49.302;9.306;2024-03-08T12:33:48;99206.28;;;14.35;26.97
8707;BME280;75512;49.302;9.306;2024-03-08T12:36:20;99213.28;;;14.72;26.87
8707;BME280;75512;49.302;9.306;2024-03-08T12:38:48;99203.22;;;14.97;26.36
8707;BME280;75512;49.302;9.306;2024-03-08T12:41:19;99204.75;;;14.70;26.63
8707;BME280;75512;49.302;9.306;2024-03-08T12:43:48;99195.69;;;14.14;27.22
8707;BME280;75512;49.302;9.306;2024-03-08T12:46:16;99183.19;;;14.16;26.91
8707;BME280;75512;49.302;9.306;2024-03-08T12:48:43;99191.16;;;14.08;27.42
8707;BME280;75512;49.302;9.306;2024-03-08T12:51:13;99180.38;;;13.88;27.70
8707;BME280;75512;49.302;9.306;2024-03-08T12:53:42;99177.66;;;14.76;27.76
8707;BME280;75512;49.302;9.306;2024-03-08T12:56:10;99162.66;;;14.41;27.34
8707;BME280;75512;49.302;9.306;2024-03-08T12:58:40;99156.47;;;15.27;26.70
8707;BME280;75512;49.302;9.306;2024-03-08T13:01:09;99161.97;;;15.25;26.57
8707;BME280;75512;49.302;9.306;2024-03-08T13:03:36;99148.53;;;15.70;26.47
8707;BME280;75512;49.302;9.306;2024-03-08T13:06:05;99142.84;;;16.00;25.26
8707;BME280;75512;49.302;9.306;2024-03-08T13:08:35;99145.97;;;15.55;26.11
8707;BME280;75512;49.302;9.306;2024-03-08T13:11:05;99138.91;;;15.55;25.61
8707;BME280;75512;49.302;9.306;2024-03-08T13:13:34;99133.34;;;16.13;24.69
8707;BME280;75512;49.302;9.306;2024-03-08T13:16:05;99138.06;;;16.72;24.87
8707;BME280;75512;49.302;9.306;2024-03-08T13:18:35;99125.91;;;15.05;25.86
8707;BME280;75512;49.302;9.306;2024-03-08T13:21:03;99126.25;;;15.72;26.56
8707;BME280;75512;49.302;9.306;2024-03-08T13:23:33;99118.97;;;15.74;25.64
8707;BME280;75512;49.302;9.306;2024-03-08T13:26:06;99117.41;;;15.86;26.40
8707;BME280;75512;49.302;9.306;2024-03-08T13:28:34;99103.72;;;16.72;25.03
8707;BME280;75512;49.302;9.306;2024-03-08T13:31:05;99104.34;;;16.13;25.48